createdAt,value
2022-12-25T00:01:37.542Z,3.41
2022-12-25T00:04:05.505Z,3.42
2022-12-25T00:06:33.304Z,3.44
2022-12-25T00:09:04.504Z,3.46
2022-12-25T00:11:32.381Z,3.49
2022-12-25T00:14:00.761Z,3.54
2022-12-25T00:16:28.768Z,3.58
2022-12-25T00:18:58.333Z,3.59
2022-12-25T00:21:26.274Z,3.64
2022-12-25T00:23:54.787Z,3.68
2022-12-25T00:26:23.003Z,3.73
2022-12-25T00:28:52.960Z,3.72
2022-12-25T00:31:21.636Z,3.71
2022-12-25T00:33:50.760Z,3.70
2022-12-25T00:36:21.108Z,3.69
2022-12-25T00:38:49.645Z,3.65
2022-12-25T00:41:39.751Z,3.62
2022-12-25T00:44:07.700Z,3.59
2022-12-25T00:46:37.427Z,3.55
2022-12-25T00:49:05.619Z,3.53
2022-12-25T00:51:33.554Z,3.53
2022-12-25T00:54:01.437Z,3.57
2022-12-25T00:56:30.400Z,3.61
2022-12-25T00:58:58.410Z,3.62
2022-12-25T01:01:26.455Z,3.63
2022-12-25T01:03:54.878Z,3.66
2022-12-25T01:06:22.855Z,3.68
2022-12-25T01:09:09.394Z,3.71
2022-12-25T01:11:39.899Z,3.70
2022-12-25T01:14:07.837Z,3.68
2022-12-25T01:16:35.665Z,3.68
2022-12-25T01:19:04.921Z,3.68
2022-12-25T01:21:32.676Z,3.64
2022-12-25T01:24:01.165Z,3.60
2022-12-25T01:26:29.742Z,3.57
2022-12-25T01:28:57.866Z,3.57
2022-12-25T01:31:28.038Z,3.60
2022-12-25T01:33:58.041Z,3.63
2022-12-25T01:36:26.431Z,3.64
2022-12-25T01:38:55.111Z,3.66
2022-12-25T01:41:23.813Z,3.69
2022-12-25T01:44:00.408Z,3.73
2022-12-25T01:46:28.605Z,3.75
2022-12-25T01:48:57.507Z,3.77
2022-12-25T01:51:26.497Z,3.75
2022-12-25T01:53:55.885Z,3.72
2022-12-25T01:56:25.799Z,3.74
2022-12-25T01:58:54.289Z,3.71
2022-12-25T02:01:22.125Z,3.67
2022-12-25T02:03:51.169Z,3.62
2022-12-25T02:06:21.490Z,3.58
2022-12-25T02:08:50.565Z,3.58
2022-12-25T02:11:33.127Z,3.57
2022-12-25T02:14:02.764Z,3.53
2022-12-25T02:16:57.670Z,3.52
2022-12-25T02:19:32.155Z,3.54
2022-12-25T02:22:06.692Z,3.60
2022-12-25T02:24:51.051Z,3.61
2022-12-25T02:27:28.152Z,3.62
2022-12-25T02:30:00.754Z,3.63
2022-12-25T02:32:30.712Z,3.62
2022-12-25T02:35:01.929Z,3.61
2022-12-25T02:37:35.062Z,3.58
2022-12-25T02:40:09.955Z,3.53
2022-12-25T02:43:01.228Z,3.50
2022-12-25T02:45:50.902Z,3.48
2022-12-25T02:48:38.741Z,3.46
2022-12-25T02:51:29.774Z,3.45
2022-12-25T02:54:21.052Z,3.44
2022-12-25T02:57:09.016Z,3.49
2022-12-25T02:59:58.038Z,3.52
2022-12-25T03:02:58.172Z,3.60
2022-12-25T03:05:44.920Z,3.65
2022-12-25T03:08:14.655Z,3.70
2022-12-25T03:11:03.544Z,3.73
2022-12-25T03:13:34.388Z,3.75
2022-12-25T03:16:20.656Z,3.73
2022-12-25T03:18:49.399Z,3.68
2022-12-25T03:21:35.735Z,3.65
2022-12-25T03:24:22.809Z,3.65
2022-12-25T03:26:59.596Z,3.63
2022-12-25T03:29:48.623Z,3.59
2022-12-25T03:32:19.388Z,3.58
2022-12-25T03:35:11.475Z,3.58
2022-12-25T03:38:02.754Z,3.57
2022-12-25T03:40:47.656Z,3.54
2022-12-25T03:43:39.818Z,3.55
2022-12-25T03:46:30.446Z,3.58
2022-12-25T03:49:21.831Z,3.61
2022-12-25T03:52:10.177Z,3.64
2022-12-25T03:54:58.840Z,3.68
2022-12-25T03:57:45.531Z,3.69
2022-12-25T04:00:39.644Z,3.69
2022-12-25T04:03:26.156Z,3.65
2022-12-25T04:06:11.925Z,3.60
2022-12-25T04:09:01.611Z,3.57
2022-12-25T04:11:47.727Z,3.56
2022-12-25T04:14:34.714Z,3.58
2022-12-25T04:17:21.033Z,3.60
2022-12-25T04:20:08.136Z,3.63
2022-12-25T04:22:54.395Z,3.66
2022-12-25T04:25:41.180Z,3.72
2022-12-25T04:28:29.660Z,3.78
2022-12-25T04:31:19.190Z,3.81
2022-12-25T04:34:05.564Z,3.86
2022-12-25T04:36:34.426Z,3.94
2022-12-25T04:39:02.230Z,4.02
2022-12-25T04:41:30.128Z,4.08
2022-12-25T04:43:58.081Z,4.03
2022-12-25T04:46:28.941Z,3.96
2022-12-25T04:48:57.387Z,3.91
2022-12-25T04:51:26.229Z,3.91
2022-12-25T04:53:54.094Z,3.92
2022-12-25T04:56:22.207Z,3.92
2022-12-25T04:58:50.412Z,3.91
2022-12-25T05:01:18.349Z,3.91
2022-12-25T05:03:50.721Z,3.92
2022-12-25T05:06:18.802Z,3.95
2022-12-25T05:08:46.924Z,3.98
2022-12-25T05:11:15.455Z,3.98
2022-12-25T05:13:44.370Z,4.00
2022-12-25T05:16:18.225Z,4.01
2022-12-25T05:18:48.215Z,4.07
2022-12-25T05:21:16.572Z,4.14
2022-12-25T05:23:48.140Z,4.16
2022-12-25T05:26:16.691Z,4.16
2022-12-25T05:28:44.608Z,4.19
2022-12-25T05:31:15.288Z,4.23
2022-12-25T05:33:43.478Z,4.23
2022-12-25T05:36:12.776Z,4.18
2022-12-25T05:38:40.941Z,4.11
2022-12-25T05:41:09.369Z,4.05
2022-12-25T05:43:39.015Z,4.01
2022-12-25T05:46:07.976Z,3.99
2022-12-25T05:48:36.718Z,3.94
2022-12-25T05:51:05.805Z,3.89
2022-12-25T05:53:34.043Z,3.93
2022-12-25T05:56:03.196Z,4.01
2022-12-25T05:58:31.484Z,4.08
2022-12-25T06:00:59.578Z,4.14
2022-12-25T06:03:27.803Z,4.21
2022-12-25T06:05:55.781Z,4.30
2022-12-25T06:08:23.799Z,4.37
2022-12-25T06:10:53.156Z,4.45
2022-12-25T06:13:21.306Z,4.51
2022-12-25T06:15:49.176Z,4.51
2022-12-25T06:18:17.143Z,4.48
2022-12-25T06:20:46.540Z,4.44
2022-12-25T06:23:14.736Z,4.38
2022-12-25T06:25:43.329Z,4.28
2022-12-25T06:28:11.338Z,4.16
2022-12-25T06:30:41.321Z,4.09
2022-12-25T06:33:09.300Z,4.05
2022-12-25T06:35:40.254Z,4.09
2022-12-25T06:38:08.188Z,4.11
2022-12-25T06:40:37.311Z,4.14
2022-12-25T06:43:08.439Z,4.22
2022-12-25T06:45:36.567Z,4.29
2022-12-25T06:48:04.848Z,4.30
2022-12-25T06:50:33.003Z,4.29
2022-12-25T06:53:00.895Z,4.37
2022-12-25T06:55:29.065Z,4.43
2022-12-25T06:57:59.529Z,4.42
2022-12-25T07:00:27.590Z,4.39
2022-12-25T07:02:57.211Z,4.37
2022-12-25T07:05:25.131Z,4.33
2022-12-25T07:07:53.183Z,4.29
2022-12-25T07:10:21.289Z,4.21
2022-12-25T07:12:49.078Z,4.20
2022-12-25T07:15:17.555Z,4.18
2022-12-25T07:17:45.728Z,4.16
2022-12-25T07:20:13.525Z,4.12
2022-12-25T07:22:41.595Z,4.09
2022-12-25T07:25:09.817Z,4.05
2022-12-25T07:27:39.829Z,4.05
2022-12-25T07:30:11.525Z,4.05
2022-12-25T07:32:40.954Z,4.06
2022-12-25T07:35:12.711Z,4.12
2022-12-25T07:37:40.669Z,4.16
2022-12-25T07:40:09.855Z,4.21
2022-12-25T07:42:37.749Z,4.27
2022-12-25T07:45:09.734Z,4.34
2022-12-25T07:47:37.577Z,4.37
2022-12-25T07:50:08.204Z,4.44
2022-12-25T07:52:43.653Z,4.54
2022-12-25T07:55:12.816Z,4.48
2022-12-25T07:57:40.690Z,4.41
2022-12-25T08:00:09.951Z,4.38
2022-12-25T08:02:41.750Z,4.33
2022-12-25T08:05:10.265Z,4.27
2022-12-25T08:07:40.037Z,4.24
2022-12-25T08:10:08.506Z,4.24
2022-12-25T08:12:36.295Z,4.24
2022-12-25T08:15:04.801Z,4.31
2022-12-25T08:17:34.149Z,4.40
2022-12-25T08:20:01.934Z,4.41
2022-12-25T08:22:29.741Z,4.44
2022-12-25T08:24:57.790Z,4.48
2022-12-25T08:27:25.566Z,4.55
2022-12-25T08:29:53.334Z,4.59
2022-12-25T08:32:21.022Z,4.58
2022-12-25T08:34:49.075Z,4.57
2022-12-25T08:37:17.000Z,4.56
2022-12-25T08:39:44.932Z,4.62
2022-12-25T08:42:14.801Z,4.61
2022-12-25T08:44:42.663Z,4.57
2022-12-25T08:47:10.623Z,4.53
2022-12-25T08:49:39.735Z,4.51
2022-12-25T08:52:07.718Z,4.49
2022-12-25T08:54:35.969Z,4.49
2022-12-25T08:57:05.676Z,4.47
2022-12-25T08:59:33.366Z,4.45
2022-12-25T09:02:01.516Z,4.46
2022-12-25T09:04:30.351Z,4.43
2022-12-25T09:06:58.235Z,4.41
2022-12-25T09:09:27.280Z,4.41
2022-12-25T09:11:55.041Z,4.41
2022-12-25T09:14:25.256Z,4.41
2022-12-25T09:16:53.601Z,4.41
2022-12-25T09:19:21.607Z,4.41
2022-12-25T09:21:49.625Z,4.42
2022-12-25T09:24:17.545Z,4.48
2022-12-25T09:26:45.232Z,4.51
2022-12-25T09:29:14.230Z,4.52
2022-12-25T09:31:42.211Z,4.54
2022-12-25T09:34:12.604Z,4.58
2022-12-25T09:36:45.376Z,4.60
2022-12-25T09:39:13.021Z,4.61
2022-12-25T09:41:49.426Z,4.59
2022-12-25T09:44:19.055Z,4.60
2022-12-25T09:46:50.234Z,4.60
2022-12-25T09:49:21.822Z,4.59
2022-12-25T09:51:53.176Z,4.58
2022-12-25T09:54:27.085Z,4.55
2022-12-25T09:56:54.863Z,4.52
2022-12-25T09:59:25.120Z,4.48
2022-12-25T10:02:00.952Z,4.47
2022-12-25T10:04:40.501Z,4.52
2022-12-25T10:07:16.543Z,4.56
2022-12-25T10:09:53.493Z,4.57
2022-12-25T10:12:28.122Z,4.59
2022-12-25T10:15:02.831Z,4.65
2022-12-25T10:17:37.291Z,4.72
2022-12-25T10:20:10.342Z,4.84
2022-12-25T10:22:40.741Z,4.89
2022-12-25T10:25:14.720Z,4.90
2022-12-25T10:27:43.307Z,4.90
2022-12-25T10:30:16.006Z,4.89
2022-12-25T10:32:44.450Z,4.89
2022-12-25T10:35:13.838Z,4.88
2022-12-25T10:37:46.299Z,4.88
2022-12-25T10:40:27.829Z,4.87
2022-12-25T10:42:57.543Z,4.82
2022-12-25T10:45:25.512Z,4.77
2022-12-25T10:48:06.799Z,4.71
2022-12-25T10:50:42.346Z,4.66
2022-12-25T10:53:18.303Z,4.63
2022-12-25T10:55:54.281Z,4.65
2022-12-25T10:58:22.003Z,4.69
2022-12-25T11:01:00.553Z,4.71
2022-12-25T11:03:30.766Z,4.72
2022-12-25T11:05:58.822Z,4.72
2022-12-25T11:08:28.576Z,4.74
2022-12-25T11:10:57.725Z,4.78
2022-12-25T11:13:26.514Z,4.81
2022-12-25T11:16:05.680Z,4.88
2022-12-25T11:18:36.126Z,4.90
2022-12-25T11:21:14.198Z,4.92
2022-12-25T11:23:46.421Z,4.96
2022-12-25T11:26:16.866Z,4.96
2022-12-25T11:28:45.486Z,4.97
2022-12-25T11:31:15.326Z,4.96
2022-12-25T11:33:45.830Z,4.95
2022-12-25T11:36:17.764Z,4.89
2022-12-25T11:38:45.559Z,4.85
2022-12-25T11:41:19.828Z,4.84
2022-12-25T11:43:50.475Z,4.83
2022-12-25T11:46:21.798Z,4.85
2022-12-25T11:48:55.759Z,4.91
2022-12-25T11:51:25.528Z,5.03
2022-12-25T11:53:55.919Z,5.05
2022-12-25T11:56:30.593Z,5.05
2022-12-25T11:59:02.417Z,5.15
2022-12-25T12:01:38.562Z,5.31
2022-12-25T12:04:09.099Z,5.41
2022-12-25T12:06:45.649Z,5.50
2022-12-25T12:09:23.339Z,5.52
2022-12-25T12:11:58.574Z,5.48
2022-12-25T12:14:34.750Z,5.41
2022-12-25T12:17:02.601Z,5.32
2022-12-25T12:19:34.007Z,5.25
2022-12-25T12:22:03.243Z,5.22
2022-12-25T12:24:35.000Z,5.17
2022-12-25T12:27:05.159Z,5.14
2022-12-25T12:29:38.760Z,5.13
2022-12-25T12:32:21.337Z,5.09
2022-12-25T12:34:50.034Z,5.04
2022-12-25T12:37:24.847Z,4.98
2022-12-25T12:39:54.201Z,4.94
2022-12-25T12:42:25.632Z,4.93
2022-12-25T12:44:54.459Z,4.94
2022-12-25T12:47:30.180Z,5.01
2022-12-25T12:49:59.989Z,5.09
2022-12-25T12:52:32.165Z,5.12
2022-12-25T12:55:01.424Z,5.13
2022-12-25T12:57:32.259Z,5.25
2022-12-25T13:00:06.466Z,5.35
2022-12-25T13:02:51.983Z,5.43
2022-12-25T13:05:34.016Z,5.46
2022-12-25T13:08:09.508Z,5.46
2022-12-25T13:10:39.948Z,5.43
2022-12-25T13:13:13.844Z,5.46
2022-12-25T13:15:45.937Z,5.46
2022-12-25T13:18:21.262Z,5.44
2022-12-25T13:20:55.160Z,5.43
2022-12-25T13:23:25.426Z,5.39
2022-12-25T13:25:54.999Z,5.39
2022-12-25T13:28:27.501Z,5.39
2022-12-25T13:31:02.189Z,5.37
2022-12-25T13:33:30.617Z,5.37
2022-12-25T13:35:58.655Z,5.45
2022-12-25T13:38:27.751Z,5.51
2022-12-25T13:41:14.980Z,5.58
2022-12-25T13:43:45.287Z,5.62
2022-12-25T13:46:14.181Z,5.65
2022-12-25T13:48:44.843Z,5.65
2022-12-25T13:51:16.594Z,5.59
2022-12-25T13:53:45.729Z,5.53
2022-12-25T13:56:15.224Z,5.48
2022-12-25T13:58:47.228Z,5.44
2022-12-25T14:01:19.816Z,5.40
2022-12-25T14:03:48.036Z,5.38
2022-12-25T14:06:18.231Z,5.38
2022-12-25T14:08:47.120Z,5.38
2022-12-25T14:11:17.933Z,5.36
2022-12-25T14:13:47.038Z,5.32
2022-12-25T14:16:17.103Z,5.34
2022-12-25T14:18:51.485Z,5.36
2022-12-25T14:21:24.269Z,5.37
2022-12-25T14:23:52.159Z,5.39
2022-12-25T14:26:22.011Z,5.34
2022-12-25T14:28:51.556Z,5.29
2022-12-25T14:31:19.980Z,5.28
2022-12-25T14:33:49.722Z,5.21
2022-12-25T14:36:18.481Z,5.13
2022-12-25T14:38:55.143Z,5.12
2022-12-25T14:41:34.284Z,5.09
2022-12-25T14:44:03.255Z,5.05
2022-12-25T14:46:37.329Z,5.04
2022-12-25T14:49:06.510Z,5.06
2022-12-25T14:51:38.117Z,5.09
2022-12-25T14:54:14.451Z,5.14
2022-12-25T14:56:46.524Z,5.17
2022-12-25T14:59:16.984Z,5.21
2022-12-25T15:01:49.588Z,5.22
2022-12-25T15:04:18.228Z,5.25
2022-12-25T15:06:53.077Z,5.25
2022-12-25T15:09:21.449Z,5.22
2022-12-25T15:11:49.829Z,5.16
2022-12-25T15:14:18.293Z,5.13
2022-12-25T15:16:47.405Z,5.11
2022-12-25T15:19:21.894Z,5.08
2022-12-25T15:21:53.106Z,5.02
2022-12-25T15:24:21.146Z,4.97
2022-12-25T15:26:48.902Z,4.92
2022-12-25T15:29:23.687Z,4.86
2022-12-25T15:32:05.055Z,4.80
2022-12-25T15:34:32.962Z,4.76
2022-12-25T15:37:01.036Z,4.74
2022-12-25T15:39:29.325Z,4.74
2022-12-25T15:42:12.984Z,4.74
2022-12-25T15:44:41.849Z,4.76
2022-12-25T15:47:10.863Z,4.78
2022-12-25T15:49:41.680Z,4.81
2022-12-25T15:52:13.651Z,4.84
2022-12-25T15:54:41.930Z,4.87
2022-12-25T15:57:16.305Z,4.92
2022-12-25T15:59:45.054Z,4.94
2022-12-25T16:02:14.755Z,4.98
2022-12-25T16:04:44.318Z,5.00
2022-12-25T16:07:15.239Z,5.01
2022-12-25T16:09:45.907Z,5.03
2022-12-25T16:12:13.891Z,5.04
2022-12-25T16:14:41.685Z,5.04
2022-12-25T16:17:12.579Z,5.02
2022-12-25T16:19:48.731Z,4.99
2022-12-25T16:22:19.825Z,4.94
2022-12-25T16:24:48.149Z,4.93
2022-12-25T16:27:15.926Z,4.92
2022-12-25T16:29:44.668Z,4.91
2022-12-25T16:32:12.985Z,4.88
2022-12-25T16:34:44.123Z,4.86
2022-12-25T16:37:13.252Z,4.86
2022-12-25T16:39:41.291Z,4.87
2022-12-25T16:42:11.064Z,4.88
2022-12-25T16:44:39.191Z,4.91
2022-12-25T16:47:08.226Z,4.95
2022-12-25T16:49:35.991Z,5.01
2022-12-25T16:52:04.144Z,5.01
2022-12-25T16:54:31.903Z,5.00
2022-12-25T16:56:59.780Z,5.00
2022-12-25T16:59:28.541Z,5.02
2022-12-25T17:01:56.721Z,5.02
2022-12-25T17:04:28.179Z,5.00
2022-12-25T17:06:57.482Z,5.01
2022-12-25T17:09:25.426Z,4.99
2022-12-25T17:11:53.151Z,4.96
2022-12-25T17:14:20.865Z,4.91
2022-12-25T17:16:49.018Z,4.87
2022-12-25T17:19:17.927Z,4.83
2022-12-25T17:21:46.676Z,4.81
2022-12-25T17:24:14.691Z,4.79
2022-12-25T17:26:44.130Z,4.77
2022-12-25T17:29:14.761Z,4.75
2022-12-25T17:31:46.566Z,4.73
2022-12-25T17:34:14.645Z,4.72
2022-12-25T17:36:42.429Z,4.73
2022-12-25T17:39:12.099Z,4.76
2022-12-25T17:41:40.453Z,4.79
2022-12-25T17:44:08.699Z,4.81
2022-12-25T17:46:37.642Z,4.81
2022-12-25T17:49:05.545Z,4.82
2022-12-25T17:51:33.685Z,4.82
2022-12-25T17:54:02.837Z,4.82
2022-12-25T17:56:31.585Z,4.81
2022-12-25T17:59:02.756Z,4.80
2022-12-25T18:01:36.968Z,4.78
2022-12-25T18:04:05.644Z,4.74
2022-12-25T18:06:34.794Z,4.69
2022-12-25T18:09:05.495Z,4.66
2022-12-25T18:11:33.954Z,4.62
2022-12-25T18:14:05.757Z,4.58
2022-12-25T18:16:36.357Z,4.55
2022-12-25T18:19:04.291Z,4.53
2022-12-25T18:21:32.135Z,4.48
2022-12-25T18:24:05.141Z,4.46
2022-12-25T18:26:35.871Z,4.49
2022-12-25T18:29:04.204Z,4.51
2022-12-25T18:31:36.086Z,4.49
2022-12-25T18:34:04.848Z,4.46
2022-12-25T18:36:32.763Z,4.44
2022-12-25T18:39:00.868Z,4.42
2022-12-25T18:41:52.105Z,4.41
2022-12-25T18:44:47.871Z,4.44
2022-12-25T18:47:24.902Z,4.44
2022-12-25T18:49:52.878Z,4.44
2022-12-25T18:55:04.553Z,4.41
2022-12-25T18:57:32.687Z,4.37
2022-12-25T19:00:16.936Z,4.33
2022-12-25T19:02:50.297Z,4.27
2022-12-25T19:05:32.190Z,4.22
2022-12-25T19:08:00.058Z,4.19
2022-12-25T19:10:29.881Z,4.18
2022-12-25T19:13:01.232Z,4.18
2022-12-25T19:15:29.339Z,4.20
2022-12-25T19:18:00.236Z,4.22
2022-12-25T19:20:28.517Z,4.22
2022-12-25T19:22:56.365Z,4.23
2022-12-25T19:25:24.133Z,4.24
2022-12-25T19:27:51.995Z,4.24
2022-12-25T19:30:19.965Z,4.24
2022-12-25T19:32:48.169Z,4.26
2022-12-25T19:35:16.499Z,4.29
2022-12-25T19:37:44.553Z,4.29
2022-12-25T19:40:13.189Z,4.30
2022-12-25T19:42:41.027Z,4.29
2022-12-25T19:45:09.687Z,4.25
2022-12-25T19:47:37.709Z,4.20
2022-12-25T19:50:06.636Z,4.14
2022-12-25T19:52:34.378Z,4.09
2022-12-25T19:55:02.203Z,4.05
2022-12-25T19:57:30.222Z,4.03
2022-12-25T19:59:58.023Z,4.01
2022-12-25T20:02:25.958Z,4.02
2022-12-25T20:04:54.532Z,4.03
2022-12-25T20:07:22.530Z,4.04
2022-12-25T20:09:52.223Z,4.05
2022-12-25T20:12:20.311Z,4.07
2022-12-25T20:14:48.916Z,4.08
2022-12-25T20:17:16.768Z,4.09
2022-12-25T20:19:46.289Z,4.10
2022-12-25T20:22:15.519Z,4.09
2022-12-25T20:24:44.032Z,4.12
2022-12-25T20:27:16.435Z,4.13
2022-12-25T20:29:45.283Z,4.15
2022-12-25T20:32:14.896Z,4.16
2022-12-25T20:34:42.768Z,4.14
2022-12-25T20:37:12.124Z,4.11
2022-12-25T20:39:40.818Z,4.06
2022-12-25T20:42:19.983Z,4.04
2022-12-25T20:44:47.858Z,4.00
2022-12-25T20:47:16.036Z,3.94
2022-12-25T20:49:43.790Z,3.89
2022-12-25T20:52:15.711Z,3.86
2022-12-25T20:54:43.654Z,3.82
2022-12-25T20:57:13.066Z,3.77
2022-12-25T20:59:43.245Z,3.74
2022-12-25T21:02:35.955Z,3.73
2022-12-25T21:04:59.772Z,3.74
2022-12-25T21:07:27.901Z,3.74
2022-12-25T21:09:55.711Z,3.76
2022-12-25T21:12:24.613Z,3.77
2022-12-25T21:14:55.753Z,3.78
2022-12-25T21:17:23.839Z,3.79
2022-12-25T21:19:54.762Z,3.83
2022-12-25T21:22:22.930Z,3.85
2022-12-25T21:24:52.244Z,3.87
2022-12-25T21:27:20.422Z,3.88
2022-12-25T21:29:48.513Z,3.86
2022-12-25T21:32:34.102Z,3.85
2022-12-25T21:35:02.143Z,3.84
2022-12-25T21:37:32.463Z,3.83
2022-12-25T21:40:00.554Z,3.82
2022-12-25T21:42:29.123Z,3.80
2022-12-25T21:44:58.465Z,3.75
2022-12-25T21:47:26.501Z,3.70
2022-12-25T21:50:38.903Z,3.66
2022-12-25T21:53:15.317Z,3.61
2022-12-25T21:55:54.730Z,3.58
2022-12-25T21:58:22.915Z,3.56
2022-12-25T22:00:53.887Z,3.54
2022-12-25T22:03:23.440Z,3.54
2022-12-25T22:06:16.071Z,3.55
2022-12-25T22:08:48.759Z,3.57
2022-12-25T22:11:38.096Z,3.58
2022-12-25T22:14:52.928Z,3.59
2022-12-25T22:17:35.141Z,3.61
2022-12-25T22:20:03.695Z,3.64
2022-12-25T22:22:32.997Z,3.66
2022-12-25T22:25:02.083Z,3.69
2022-12-25T22:27:32.216Z,3.69
2022-12-25T22:30:00.583Z,3.68
2022-12-25T22:32:28.872Z,3.66
2022-12-25T22:34:56.949Z,3.64
2022-12-25T22:37:25.522Z,3.63
2022-12-25T22:39:53.495Z,3.63
2022-12-25T22:42:21.972Z,3.62
2022-12-25T22:44:49.964Z,3.61
2022-12-25T22:47:19.047Z,3.61
2022-12-25T22:49:52.481Z,3.62
2022-12-25T22:52:20.565Z,3.62
2022-12-25T22:54:51.257Z,3.61
2022-12-25T22:57:19.556Z,3.57
2022-12-25T22:59:49.855Z,3.52
2022-12-25T23:02:19.665Z,3.50
2022-12-25T23:04:52.195Z,3.45
2022-12-25T23:07:22.617Z,3.40
2022-12-25T23:09:50.919Z,3.36
2022-12-25T23:12:37.228Z,3.32
2022-12-25T23:15:08.300Z,3.32
2022-12-25T23:17:55.895Z,3.31
2022-12-25T23:20:42.301Z,3.31
2022-12-25T23:23:31.429Z,3.32
2022-12-25T23:26:09.695Z,3.33
2022-12-25T23:28:57.332Z,3.34
2022-12-25T23:31:31.774Z,3.36
2022-12-25T23:34:01.067Z,3.36
2022-12-25T23:36:29.017Z,3.37
2022-12-25T23:38:57.631Z,3.38
2022-12-25T23:41:28.460Z,3.39
2022-12-25T23:43:56.756Z,3.39
2022-12-25T23:46:24.634Z,3.40
2022-12-25T23:48:52.557Z,3.39
2022-12-25T23:51:20.427Z,3.37
2022-12-25T23:53:50.030Z,3.36
2022-12-25T23:56:18.155Z,3.33
2022-12-25T23:58:51.180Z,3.27
